Time;durP1;ratioP1;P1;durP2;ratioP2;P2;SDS_P1;SDS_P2;PMS_P1;PMS_P2;Temp;Humidity;BMP_temperature;BMP_pressure;BME280_temperature;BME280_humidity;BME280_pressure;Samples;Min_cycle;Max_cycle;Signal;HPM_P1;HPM_P2
2023/04/30 00:01:46;;;;;;;2.50;2.30;;;8.90;97.30;;;;;;4994677;28;20193;-83
2023/04/30 00:04:12;;;;;;;2.13;1.97;;;8.90;97.30;;;;;;4981367;28;20174;-81
2023/04/30 00:06:37;;;;;;;1.80;1.77;;;8.80;97.30;;;;;;4981840;28;20173;-79
2023/04/30 00:09:02;;;;;;;3.33;1.47;;;8.80;97.30;;;;;;4976789;28;20205;-78
2023/04/30 00:11:28;;;;;;;2.23;1.67;;;8.70;97.30;;;;;;4996590;28;20804;-81
2023/04/30 00:13:55;;;;;;;1.57;1.47;;;8.70;97.30;;;;;;4989344;28;20178;-78
2023/04/30 00:16:21;;;;;;;3.63;1.63;;;8.60;97.30;;;;;;4993381;28;20202;-83
2023/04/30 00:18:46;;;;;;;1.57;1.53;;;8.60;97.30;;;;;;4995452;28;20523;-82
2023/04/30 00:21:12;;;;;;;2.07;1.80;;;8.50;97.30;;;;;;4980826;28;20232;-84
2023/04/30 00:23:38;;;;;;;2.63;1.30;;;8.50;97.30;;;;;;4973020;28;20189;-83
2023/04/30 00:26:03;;;;;;;3.30;1.60;;;8.50;97.30;;;;;;4979531;28;20332;-84
2023/04/30 00:28:29;;;;;;;4.10;1.17;;;8.40;97.30;;;;;;4995198;28;20189;-83
2023/04/30 00:30:54;;;;;;;2.90;2.50;;;8.40;97.30;;;;;;4994501;28;20205;-84
2023/04/30 00:33:20;;;;;;;9.00;1.40;;;8.30;97.30;;;;;;4993645;28;20201;-82
2023/04/30 00:35:46;;;;;;;1.60;1.50;;;8.20;97.30;;;;;;4993406;28;20209;-84
2023/04/30 00:38:11;;;;;;;1.50;1.40;;;8.20;97.30;;;;;;4994973;28;20209;-83
2023/04/30 00:40:39;;;;;;;1.50;1.40;;;8.10;97.30;;;;;;4995065;28;20213;-83
2023/04/30 00:43:04;;;;;;;2.17;2.00;;;8.10;97.30;;;;;;4982592;28;20272;-83
2023/04/30 00:45:30;;;;;;;6.87;1.80;;;8.00;97.30;;;;;;4985812;28;20436;-83
2023/04/30 00:47:56;;;;;;;1.70;1.60;;;8.00;97.30;;;;;;4994153;28;20890;-83
2023/04/30 00:50:22;;;;;;;1.43;1.33;;;8.00;97.30;;;;;;4992618;28;20209;-81
2023/04/30 00:52:47;;;;;;;3.77;3.43;;;7.90;97.30;;;;;;4974464;28;20226;-83
2023/04/30 00:55:16;;;;;;;1.67;1.57;;;7.90;97.30;;;;;;4974034;28;20422;-84
2023/04/30 00:57:41;;;;;;;3.50;1.93;;;7.80;97.30;;;;;;4995248;28;20210;-83
2023/04/30 01:00:10;;;;;;;1.43;1.33;;;7.80;97.30;;;;;;4975395;28;20429;-83
2023/04/30 01:02:36;;;;;;;1.43;1.33;;;7.70;97.30;;;;;;4988809;28;20280;-83
2023/04/30 01:05:03;;;;;;;1.93;1.83;;;7.70;97.30;;;;;;4976778;28;20414;-81
2023/04/30 01:07:30;;;;;;;2.23;2.03;;;7.70;97.30;;;;;;4990273;28;20473;-83
2023/04/30 01:09:58;;;;;;;2.00;1.90;;;7.60;97.30;;;;;;4994499;28;20937;-80
2023/04/30 01:12:57;;;;;;;1.67;1.63;;;7.60;97.30;;;;;;4973778;28;20513;-83
2023/04/30 01:15:46;;;;;;;1.50;1.40;;;7.50;97.30;;;;;;4975709;28;20747;-80
2023/04/30 01:18:21;;;;;;;3.13;2.37;;;7.50;97.30;;;;;;4990614;28;20473;-82
2023/04/30 01:20:51;;;;;;;2.50;1.20;;;7.50;97.30;;;;;;4976442;28;20421;-82
2023/04/30 01:23:55;;;;;;;1.43;1.33;;;7.40;97.30;;;;;;4977246;28;20426;-82
2023/04/30 01:26:26;;;;;;;2.07;1.83;;;7.40;97.30;;;;;;4991100;28;20422;-83
2023/04/30 01:28:53;;;;;;;1.67;1.63;;;7.30;97.30;;;;;;4982678;28;20418;-84
2023/04/30 01:31:19;;;;;;;1.77;1.70;;;7.30;97.30;;;;;;4994279;28;20803;-84
2023/04/30 01:33:44;;;;;;;1.10;1.00;;;7.30;97.30;;;;;;4972918;28;20505;-84
2023/04/30 01:36:19;;;;;;;1.30;1.20;;;7.30;97.30;;;;;;4993854;28;20202;-83
2023/04/30 01:39:08;;;;;;;2.83;2.63;;;7.30;97.30;;;;;;4997937;28;20270;-83
2023/04/30 01:41:36;;;;;;;1.60;1.50;;;7.30;97.30;;;;;;4974365;28;20490;-84
2023/04/30 01:44:20;;;;;;;2.07;1.30;;;7.20;97.30;;;;;;4990049;28;20500;-84
2023/04/30 01:46:58;;;;;;;1.80;1.70;;;7.20;97.30;;;;;;4995508;28;20436;-82
2023/04/30 01:49:49;;;;;;;1.70;1.60;;;7.10;97.30;;;;;;4980627;28;20426;-83
2023/04/30 01:52:35;;;;;;;1.40;1.30;;;7.00;97.30;;;;;;4971924;28;20485;-83
2023/04/30 01:55:10;;;;;;;24.77;2.33;;;7.00;97.30;;;;;;4984253;28;20422;-83
2023/04/30 01:57:42;;;;;;;2.27;2.00;;;6.90;97.30;;;;;;4983349;28;20523;-83
2023/04/30 02:00:10;;;;;;;2.20;2.00;;;6.90;97.30;;;;;;4991324;28;20517;-83
2023/04/30 02:02:36;;;;;;;7.33;2.03;;;6.80;97.30;;;;;;4977130;28;20520;-83
2023/04/30 02:05:01;;;;;;;3.73;2.67;;;6.80;97.30;;;;;;4990959;28;20433;-83
2023/04/30 02:07:40;;;;;;;2.90;2.70;;;6.80;97.30;;;;;;4985692;28;20441;-82
2023/04/30 02:10:07;;;;;;;1.13;1.03;;;6.70;97.30;;;;;;4975248;28;20182;-83
2023/04/30 02:12:32;;;;;;;1.50;1.40;;;6.70;97.30;;;;;;4974280;28;20513;-83
2023/04/30 02:14:58;;;;;;;1.83;1.30;;;6.60;97.30;;;;;;4992269;28;20950;-82
2023/04/30 02:17:26;;;;;;;1.30;1.20;;;6.50;97.30;;;;;;4978941;28;20229;-83
2023/04/30 02:19:51;;;;;;;1.50;1.33;;;6.50;97.30;;;;;;4976473;28;20175;-83
2023/04/30 02:22:17;;;;;;;1.20;1.10;;;6.40;97.30;;;;;;4975270;28;20815;-83
2023/04/30 02:24:45;;;;;;;1.90;1.87;;;6.40;97.30;;;;;;4984295;28;20349;-83
2023/04/30 02:27:20;;;;;;;1.53;1.20;;;6.30;97.30;;;;;;4975800;28;20734;-81
2023/04/30 02:29:48;;;;;;;1.50;1.40;;;6.20;97.30;;;;;;4977780;28;20820;-83
2023/04/30 02:32:16;;;;;;;4.10;1.37;;;6.20;97.30;;;;;;4980280;28;20437;-83
2023/04/30 02:34:42;;;;;;;1.87;1.80;;;6.10;97.30;;;;;;4990660;28;20437;-83
2023/04/30 02:37:07;;;;;;;1.50;1.40;;;6.10;97.30;;;;;;4979611;28;20560;-82
2023/04/30 02:39:33;;;;;;;2.47;2.27;;;6.10;97.30;;;;;;4990975;28;20214;-83
2023/04/30 02:41:59;;;;;;;1.53;1.43;;;6.10;97.30;;;;;;4995936;28;20288;-82
2023/04/30 02:44:30;;;;;;;2.47;2.27;;;6.10;97.30;;;;;;4982488;28;20182;-83
2023/04/30 02:50:00;;;;;;;3.07;2.13;;;6.10;97.30;;;;;;4957224;28;20507;-81
2023/04/30 02:52:58;;;;;;;56.23;2.83;;;6.10;97.30;;;;;;4957059;28;20509;-82
2023/04/30 02:55:31;;;;;;;1.93;1.60;;;6.00;97.30;;;;;;4974151;28;20426;-82
2023/04/30 02:58:00;;;;;;;1.87;1.77;;;6.00;97.30;;;;;;4972107;28;20755;-83
2023/04/30 03:04:23;;;;;;;1.83;1.73;;;5.90;97.30;;;;;;4973843;28;20414;-83
2023/04/30 03:06:59;;;;;;;1.23;1.13;;;5.80;97.30;;;;;;4975214;28;20422;-83
2023/04/30 03:09:48;;;;;;;1.67;1.57;;;5.80;97.30;;;;;;4979309;28;20418;-83
2023/04/30 03:12:20;;;;;;;1.43;1.40;;;5.80;97.30;;;;;;4977959;28;20452;-82
2023/04/30 03:14:48;;;;;;;4.37;3.40;;;5.70;97.30;;;;;;4986250;28;20432;-81
2023/04/30 03:17:14;;;;;;;2.07;1.93;;;5.70;97.30;;;;;;4985321;28;20461;-83
2023/04/30 03:19:39;;;;;;;2.03;1.83;;;5.70;97.30;;;;;;4986550;28;20427;-82
2023/04/30 03:22:10;;;;;;;9.00;1.90;;;5.60;97.30;;;;;;4978789;28;20198;-83
2023/04/30 03:24:36;;;;;;;1.30;1.20;;;5.60;97.30;;;;;;4978441;28;20284;-81
2023/04/30 03:27:06;;;;;;;2.83;2.43;;;5.60;97.30;;;;;;4983088;28;20425;-82
2023/04/30 03:29:35;;;;;;;1.87;1.77;;;5.60;97.30;;;;;;4983346;28;20896;-82
2023/04/30 03:32:00;;;;;;;2.33;1.50;;;5.60;97.30;;;;;;4999361;28;20547;-82
2023/04/30 03:34:30;;;;;;;1.60;1.50;;;5.60;97.30;;;;;;4988506;28;20862;-79
2023/04/30 03:36:56;;;;;;;1.10;1.00;;;5.60;97.30;;;;;;4969914;28;20206;-84
2023/04/30 03:39:24;;;;;;;1.37;1.27;;;5.60;97.30;;;;;;4992996;28;20421;-82
2023/04/30 03:41:49;;;;;;;1.27;1.17;;;5.60;97.30;;;;;;4981103;28;20198;-82
2023/04/30 03:44:17;;;;;;;1.40;1.30;;;5.60;97.30;;;;;;4980304;28;20446;-83
2023/04/30 03:46:43;;;;;;;1.60;1.50;;;5.60;97.30;;;;;;4980651;28;20190;-82
2023/04/30 03:49:09;;;;;;;19.30;3.33;;;5.50;97.30;;;;;;4993310;28;20429;-82
2023/04/30 03:51:38;;;;;;;1.20;1.10;;;5.50;97.30;;;;;;4981706;28;20237;-82
2023/04/30 03:54:05;;;;;;;3.83;2.50;;;5.50;97.30;;;;;;4982123;28;20434;-82
2023/04/30 03:56:35;;;;;;;1.50;1.40;;;5.40;97.30;;;;;;4975797;28;20472;-82
2023/04/30 03:59:01;;;;;;;1.27;1.17;;;5.40;97.30;;;;;;4976301;28;20998;-82
2023/04/30 04:01:28;;;;;;;2.13;1.93;;;5.30;97.30;;;;;;4978825;28;20442;-81
2023/04/30 04:03:54;;;;;;;3.10;2.90;;;5.30;97.30;;;;;;4974033;28;20418;-82
2023/04/30 04:06:20;;;;;;;2.20;1.57;;;5.20;97.30;;;;;;4981623;28;20993;-82
2023/04/30 04:08:45;;;;;;;2.10;1.83;;;5.20;97.30;;;;;;4994767;28;20193;-82
2023/04/30 04:11:11;;;;;;;1.60;1.50;;;5.20;97.30;;;;;;4995294;28;20197;-81
2023/04/30 04:13:37;;;;;;;4.00;2.70;;;5.20;97.30;;;;;;4995273;28;20179;-81
2023/04/30 04:16:03;;;;;;;1.83;1.70;;;5.20;97.30;;;;;;4997497;28;20901;-82
2023/04/30 04:18:28;;;;;;;2.70;1.50;;;5.30;97.30;;;;;;4988612;28;20230;-82
2023/04/30 04:20:55;;;;;;;4.53;4.10;;;5.30;97.30;;;;;;4979050;28;20179;-82
2023/04/30 04:23:21;;;;;;;2.47;2.27;;;5.30;97.30;;;;;;4997921;28;20199;-81
2023/04/30 04:25:48;;;;;;;2.60;1.70;;;5.30;97.30;;;;;;4976961;28;20429;-82
2023/04/30 04:28:15;;;;;;;2.47;2.00;;;5.30;97.30;;;;;;4992490;28;20564;-82
2023/04/30 04:30:40;;;;;;;1.57;1.47;;;5.40;97.30;;;;;;4985000;28;20429;-82
2023/04/30 04:33:05;;;;;;;3.23;1.67;;;5.40;97.30;;;;;;4978462;28;20848;-81
2023/04/30 04:35:31;;;;;;;1.60;1.50;;;5.40;97.30;;;;;;4976897;28;20210;-82
2023/04/30 04:37:57;;;;;;;3.83;1.83;;;5.40;97.30;;;;;;4974097;28;20313;-82
2023/04/30 04:40:23;;;;;;;3.13;2.93;;;5.50;97.30;;;;;;4977090;28;20311;-82
2023/04/30 04:42:50;;;;;;;5.13;2.23;;;5.50;97.30;;;;;;4983978;28;20438;-82
2023/04/30 04:45:16;;;;;;;3.27;2.03;;;5.50;97.30;;;;;;4996332;28;20429;-82
2023/04/30 04:47:41;;;;;;;2.20;1.27;;;5.50;97.30;;;;;;4980323;28;20590;-82
2023/04/30 04:50:07;;;;;;;1.20;1.10;;;5.60;97.30;;;;;;4987125;28;20183;-81
2023/04/30 04:52:33;;;;;;;2.20;1.87;;;5.60;97.30;;;;;;4995383;28;20241;-79
2023/04/30 04:54:58;;;;;;;5.53;2.30;;;5.60;97.30;;;;;;4996336;28;20229;-82
2023/04/30 04:57:24;;;;;;;1.73;1.63;;;5.60;97.30;;;;;;4990894;28;20896;-82
2023/04/30 04:59:50;;;;;;;1.57;1.47;;;5.70;97.30;;;;;;4983451;28;20209;-83
2023/04/30 05:02:15;;;;;;;1.63;1.53;;;5.70;97.30;;;;;;5003754;28;20438;-82
2023/04/30 05:04:41;;;;;;;2.27;2.07;;;5.80;97.30;;;;;;4979228;28;20186;-82
2023/04/30 05:07:06;;;;;;;1.80;1.70;;;5.80;97.30;;;;;;5003147;28;20229;-81
2023/04/30 05:09:32;;;;;;;9.23;3.20;;;5.80;97.30;;;;;;4978153;28;20177;-82
2023/04/30 05:11:58;;;;;;;2.77;1.93;;;5.80;97.30;;;;;;4977915;28;20449;-82
2023/04/30 05:14:23;;;;;;;3.20;2.43;;;5.80;97.30;;;;;;4972101;28;20199;-81
2023/04/30 05:16:49;;;;;;;2.00;1.90;;;5.90;97.30;;;;;;4977493;28;20206;-82
2023/04/30 05:19:14;;;;;;;3.33;2.80;;;5.90;97.30;;;;;;4977054;28;20186;-81
2023/04/30 05:21:40;;;;;;;1.47;1.40;;;6.00;97.30;;;;;;4972647;28;20214;-81
2023/04/30 05:24:05;;;;;;;3.30;1.50;;;6.10;97.30;;;;;;4994428;28;20202;-82
2023/04/30 05:26:31;;;;;;;1.30;1.20;;;6.10;97.30;;;;;;4994957;28;20254;-82
2023/04/30 05:28:56;;;;;;;1.50;1.40;;;6.20;97.30;;;;;;4977218;28;20324;-82
2023/04/30 05:31:22;;;;;;;2.40;2.10;;;6.20;97.30;;;;;;4993570;28;20264;-82
2023/04/30 05:33:47;;;;;;;5.97;2.07;;;6.30;97.30;;;;;;4981236;28;20553;-82
2023/04/30 05:36:13;;;;;;;1.97;1.87;;;6.40;97.30;;;;;;4982540;28;20210;-82
2023/04/30 05:38:39;;;;;;;1.97;1.87;;;6.40;97.30;;;;;;4977623;28;20274;-81
2023/04/30 05:41:04;;;;;;;3.80;2.50;;;6.50;97.30;;;;;;4977223;28;20175;-81
2023/04/30 05:43:30;;;;;;;1.70;1.60;;;6.50;97.30;;;;;;4993273;28;20231;-82
2023/04/30 05:45:55;;;;;;;5.23;2.40;;;6.50;97.30;;;;;;4977026;28;20221;-82
2023/04/30 05:48:21;;;;;;;2.07;1.93;;;6.50;97.30;;;;;;4983152;28;20182;-82
2023/04/30 05:50:46;;;;;;;2.77;1.60;;;6.50;97.30;;;;;;4974024;28;20271;-82
2023/04/30 05:53:15;;;;;;;1.50;1.40;;;6.60;97.30;;;;;;4991596;28;20242;-82
2023/04/30 05:55:41;;;;;;;1.80;1.70;;;6.60;97.30;;;;;;4969742;28;20206;-83
2023/04/30 05:58:06;;;;;;;1.20;1.10;;;6.70;97.30;;;;;;4992819;28;20941;-82
2023/04/30 06:00:32;;;;;;;1.03;0.93;;;6.80;97.30;;;;;;4976209;28;20432;-83
2023/04/30 06:03:00;;;;;;;1.50;1.40;;;6.80;97.30;;;;;;4990008;28;20201;-82
2023/04/30 06:05:28;;;;;;;1.77;1.67;;;6.80;97.30;;;;;;4976482;28;20551;-83
2023/04/30 06:07:56;;;;;;;16.27;1.80;;;6.80;97.30;;;;;;4975567;28;20939;-82
2023/04/30 06:10:24;;;;;;;2.07;1.93;;;6.90;97.30;;;;;;4975156;28;20521;-82
2023/04/30 06:12:50;;;;;;;3.07;1.73;;;7.00;97.30;;;;;;4985627;28;20620;-82
2023/04/30 06:15:18;;;;;;;12.40;2.03;;;7.00;97.30;;;;;;4974699;28;20453;-82
2023/04/30 06:17:46;;;;;;;4.03;1.97;;;7.10;97.30;;;;;;4977504;28;20214;-82
2023/04/30 06:20:13;;;;;;;8.10;2.13;;;7.10;97.30;;;;;;4973921;28;20438;-82
2023/04/30 06:22:40;;;;;;;1.93;1.83;;;7.10;97.30;;;;;;4987637;28;20974;-79
2023/04/30 06:25:08;;;;;;;5.03;3.00;;;7.20;97.30;;;;;;4968457;28;20950;-79
2023/04/30 06:27:34;;;;;;;1.80;1.70;;;7.20;97.30;;;;;;4970103;28;20434;-78
2023/04/30 06:30:00;;;;;;;2.70;2.43;;;7.30;97.30;;;;;;4994938;28;20468;-79
2023/04/30 06:32:28;;;;;;;3.40;2.10;;;7.40;97.30;;;;;;4970949;28;20207;-77
2023/04/30 06:34:57;;;;;;;4.60;2.90;;;7.40;97.30;;;;;;4984424;28;20190;-77
2023/04/30 06:37:22;;;;;;;4.60;4.30;;;7.50;97.30;;;;;;4975235;28;20480;-77
2023/04/30 06:39:50;;;;;;;2.77;2.37;;;7.70;97.30;;;;;;4970306;28;20966;-79
2023/04/30 06:42:19;;;;;;;4.40;2.33;;;7.70;97.30;;;;;;4988931;28;20221;-77
2023/04/30 06:44:46;;;;;;;2.17;2.00;;;7.70;97.30;;;;;;4996349;28;20424;-81
2023/04/30 06:47:11;;;;;;;2.47;2.30;;;7.70;97.30;;;;;;4993163;28;20425;-78
2023/04/30 06:49:37;;;;;;;1.80;1.70;;;7.80;97.30;;;;;;4980053;28;20505;-77
2023/04/30 06:52:03;;;;;;;1.20;1.10;;;7.90;97.30;;;;;;4982432;28;20281;-78
2023/04/30 06:54:28;;;;;;;1.93;1.83;;;7.90;97.30;;;;;;4975633;28;20202;-80
2023/04/30 06:56:54;;;;;;;1.70;1.60;;;8.00;97.30;;;;;;4996805;28;20457;-78
2023/04/30 06:59:20;;;;;;;1.87;1.77;;;8.00;97.30;;;;;;4982871;28;20181;-77
2023/04/30 07:01:45;;;;;;;3.77;1.90;;;8.10;97.30;;;;;;4981326;28;20210;-77
2023/04/30 07:04:11;;;;;;;2.80;2.23;;;8.10;97.30;;;;;;4976687;28;20867;-78
2023/04/30 07:06:36;;;;;;;1.47;1.37;;;8.20;97.30;;;;;;4983194;28;20355;-77
2023/04/30 07:09:06;;;;;;;2.40;2.20;;;8.20;97.30;;;;;;4975240;28;20225;-77
2023/04/30 07:16:40;;;;;;;2.20;1.63;;;8.50;97.30;;;;;;4974449;28;20528;-78
2023/04/30 07:19:31;;;;;;;1.57;1.33;;;8.50;97.30;;;;;;4982792;28;20639;-77
2023/04/30 07:21:57;;;;;;;4.70;2.47;;;8.50;97.30;;;;;;4971360;28;20883;-81
2023/04/30 07:24:30;;;;;;;1.87;1.30;;;8.60;97.30;;;;;;5006838;28;20422;-81
2023/04/30 07:27:01;;;;;;;2.10;1.97;;;8.80;97.30;;;;;;4992230;28;20220;-78
2023/04/30 07:29:28;;;;;;;1.97;1.93;;;8.80;97.30;;;;;;5005514;28;20488;-78
2023/04/30 07:31:54;;;;;;;2.90;2.53;;;8.80;97.30;;;;;;4995051;28;20787;-80
2023/04/30 07:34:19;;;;;;;3.73;3.10;;;8.90;97.30;;;;;;4996619;28;20424;-78
2023/04/30 07:36:47;;;;;;;6.93;2.30;;;9.00;97.30;;;;;;4991663;28;20294;-81
2023/04/30 07:39:13;;;;;;;1.30;1.20;;;9.00;97.30;;;;;;4994829;28;20213;-78
2023/04/30 07:41:38;;;;;;;1.97;1.87;;;9.00;97.30;;;;;;5010719;28;20487;-79
2023/04/30 07:44:04;;;;;;;3.37;1.70;;;8.90;97.30;;;;;;4994382;28;20655;-79
2023/04/30 07:46:30;;;;;;;1.50;1.40;;;8.80;97.30;;;;;;4995089;28;20190;-78
2023/04/30 07:48:58;;;;;;;3.20;1.23;;;8.70;97.30;;;;;;4993805;28;20189;-84
2023/04/30 07:51:31;;;;;;;1.97;1.70;;;8.80;97.30;;;;;;4991345;28;20225;-81
2023/04/30 07:53:57;;;;;;;5.90;2.53;;;8.90;97.30;;;;;;4994917;28;20507;-78
2023/04/30 07:56:30;;;;;;;3.03;2.03;;;9.10;97.30;;;;;;4994384;28;20922;-78
2023/04/30 07:58:58;;;;;;;1.60;1.50;;;9.20;97.30;;;;;;4994556;28;20182;-78
2023/04/30 08:01:28;;;;;;;2.53;2.33;;;9.40;97.30;;;;;;5005599;28;20528;-78
2023/04/30 08:03:56;;;;;;;1.53;1.37;;;9.40;97.30;;;;;;5008260;28;20793;-81
2023/04/30 08:06:30;;;;;;;1.53;1.43;;;9.40;97.30;;;;;;4994018;28;20413;-80
2023/04/30 08:08:58;;;;;;;2.73;2.10;;;9.50;97.30;;;;;;4995366;28;20941;-78
2023/04/30 08:11:26;;;;;;;32.07;4.17;;;9.60;97.30;;;;;;5004265;28;20452;-77
2023/04/30 08:13:52;;;;;;;1.90;1.83;;;9.60;96.90;;;;;;5007895;28;20420;-82
2023/04/30 08:16:18;;;;;;;1.40;1.30;;;9.70;97.30;;;;;;4992778;28;20550;-79
2023/04/30 08:18:48;;;;;;;1.20;1.10;;;9.90;96.80;;;;;;4992464;28;20448;-79
2023/04/30 08:21:13;;;;;;;2.23;2.03;;;10.00;96.00;;;;;;5008141;28;20188;-79
2023/04/30 08:23:39;;;;;;;4.07;2.33;;;10.20;96.50;;;;;;4999152;28;20965;-80
2023/04/30 08:26:07;;;;;;;1.20;1.10;;;10.40;95.90;;;;;;5008371;28;20181;-81
2023/04/30 08:28:32;;;;;;;1.87;1.77;;;10.60;95.50;;;;;;4994862;28;20165;-79
2023/04/30 08:30:58;;;;;;;4.23;1.23;;;10.60;93.10;;;;;;4991313;28;20428;-82
2023/04/30 08:33:23;;;;;;;1.93;1.60;;;10.70;93.40;;;;;;4991739;28;20710;-80
2023/04/30 08:35:49;;;;;;;2.40;2.20;;;10.80;93.60;;;;;;4996155;28;20182;-79
2023/04/30 08:38:15;;;;;;;1.73;1.30;;;10.90;93.30;;;;;;4992823;28;20642;-80
2023/04/30 08:40:42;;;;;;;3.07;1.77;;;10.90;91.80;;;;;;4991094;28;20429;-79
2023/04/30 08:43:08;;;;;;;1.20;1.10;;;10.80;91.00;;;;;;4999090;28;20193;-81
2023/04/30 08:45:38;;;;;;;12.43;2.60;;;10.70;88.90;;;;;;4990866;28;20424;-79
2023/04/30 08:48:09;;;;;;;0.73;0.70;;;10.80;89.60;;;;;;4991270;28;20432;-82
2023/04/30 08:50:35;;;;;;;1.47;1.37;;;10.90;89.50;;;;;;4992174;28;20932;-81
2023/04/30 08:53:01;;;;;;;2.63;2.20;;;11.00;89.20;;;;;;4990054;28;20528;-82
2023/04/30 08:55:27;;;;;;;1.73;1.60;;;11.10;89.10;;;;;;4987204;28;20178;-82
2023/04/30 08:57:52;;;;;;;1.37;1.00;;;11.20;89.60;;;;;;5009383;28;20835;-81
2023/04/30 09:00:18;;;;;;;1.00;0.90;;;11.40;90.00;;;;;;4985398;28;20185;-79
2023/04/30 09:02:45;;;;;;;1.20;1.10;;;11.50;89.50;;;;;;4992315;28;20202;-81
2023/04/30 09:05:12;;;;;;;1.43;1.27;;;11.50;87.80;;;;;;4990730;28;20201;-79
2023/04/30 09:07:43;;;;;;;1.10;1.00;;;11.50;88.80;;;;;;4986003;28;20413;-79
2023/04/30 09:10:20;;;;;;;1.33;1.23;;;11.60;88.90;;;;;;4992719;28;20427;-82
2023/04/30 09:13:02;;;;;;;1.73;1.50;;;11.80;89.30;;;;;;4992264;28;20441;-79
2023/04/30 09:15:29;;;;;;;2.10;1.63;;;11.90;85.40;;;;;;5002922;28;20478;-82
2023/04/30 09:18:13;;;;;;;2.60;2.43;;;11.90;84.40;;;;;;4992635;28;20457;-82
2023/04/30 09:20:57;;;;;;;4.20;1.83;;;11.90;84.30;;;;;;4992992;28;20451;-79
2023/04/30 09:23:24;;;;;;;1.73;1.63;;;11.80;83.00;;;;;;4986795;28;20451;-80
2023/04/30 09:25:50;;;;;;;2.97;1.90;;;11.80;83.80;;;;;;4995278;28;20441;-79
2023/04/30 09:28:15;;;;;;;0.90;0.80;;;11.80;84.10;;;;;;4993531;28;20468;-79
2023/04/30 09:30:41;;;;;;;1.33;1.23;;;12.00;85.00;;;;;;4992501;28;20421;-83
2023/04/30 09:33:07;;;;;;;1.10;1.00;;;12.30;84.20;;;;;;4992430;28;20251;-81
2023/04/30 09:35:36;;;;;;;1.20;1.10;;;12.30;82.60;;;;;;4992362;28;20508;-82
2023/04/30 09:38:02;;;;;;;1.93;1.43;;;12.30;80.80;;;;;;4992589;28;20453;-79
2023/04/30 09:40:35;;;;;;;1.63;1.53;;;12.30;80.90;;;;;;4993530;28;20424;-79
2023/04/30 09:43:02;;;;;;;20.73;2.20;;;12.40;82.80;;;;;;4991734;28;20448;-84
2023/04/30 09:45:38;;;;;;;1.30;1.00;;;12.40;82.30;;;;;;4988998;28;20429;-84
2023/04/30 09:48:04;;;;;;;2.00;1.30;;;12.50;82.20;;;;;;4998579;28;20572;-83
2023/04/30 09:50:39;;;;;;;2.17;2.00;;;12.60;84.30;;;;;;5000318;28;21011;-83
2023/04/30 09:53:17;;;;;;;1.57;1.20;;;12.60;82.00;;;;;;5001559;28;20440;-85
2023/04/30 09:55:51;;;;;;;1.00;0.90;;;12.60;82.50;;;;;;5005527;28;20425;-84
2023/04/30 09:58:21;;;;;;;2.40;1.43;;;12.70;82.80;;;;;;4980335;28;20414;-85
2023/04/30 10:00:59;;;;;;;1.10;1.00;;;12.80;81.00;;;;;;4992822;28;20431;-85
2023/04/30 10:04:11;;;;;;;2.90;1.53;;;12.80;81.50;;;;;;5006972;28;20953;-83
2023/04/30 10:06:41;;;;;;;1.93;1.67;;;12.70;81.10;;;;;;4991791;28;20813;-85
2023/04/30 10:09:40;;;;;;;1.83;1.63;;;12.90;82.50;;;;;;5006472;28;20477;-86
2023/04/30 10:12:39;;;;;;;3.40;1.20;;;12.90;81.00;;;;;;4990304;28;20992;-83
2023/04/30 10:15:43;;;;;;;;;;;;;;;;;;;;;
2023/04/30 10:18:30;;;;;;;14.00;2.07;;;12.80;79.70;;;;;;4992241;28;20424;-84
2023/04/30 10:21:02;;;;;;;1.30;1.20;;;13.00;81.70;;;;;;4997164;28;21005;-84
2023/04/30 10:23:31;;;;;;;1.70;1.10;;;13.20;79.70;;;;;;5009290;28;20495;-83
2023/04/30 10:26:00;;;;;;;1.60;1.20;;;13.20;79.90;;;;;;4992206;28;20479;-84
2023/04/30 10:28:31;;;;;;;1.23;1.13;;;13.20;79.00;;;;;;5008158;28;20428;-86
2023/04/30 10:30:57;;;;;;;1.60;1.50;;;13.10;78.20;;;;;;4992275;28;20421;-85
2023/04/30 10:33:41;;;;;;;1.73;1.60;;;13.20;80.40;;;;;;4991865;28;20481;-81
2023/04/30 10:36:13;;;;;;;2.13;1.97;;;13.40;81.60;;;;;;4996905;28;20954;-85
2023/04/30 10:38:41;;;;;;;1.50;1.20;;;13.40;78.80;;;;;;4986457;28;20425;-85
2023/04/30 10:43:40;;;;;;;1.30;1.20;;;13.60;81.20;;;;;;4995105;23;20497;-83
2023/04/30 10:46:21;;;;;;;1.13;1.13;;;13.60;79.30;;;;;;4972032;28;20182;-80
2023/04/30 10:49:10;;;;;;;1.30;1.20;;;13.60;79.70;;;;;;4987409;28;20441;-79
2023/04/30 10:51:53;;;;;;;1.33;1.27;;;13.70;76.60;;;;;;4983433;28;20461;-83
2023/04/30 10:54:51;;;;;;;1.40;0.97;;;13.80;75.80;;;;;;4975047;28;20813;-85
2023/04/30 10:57:20;;;;;;;3.47;1.30;;;13.80;75.90;;;;;;4961828;28;20455;-82
2023/04/30 11:00:08;;;;;;;2.40;1.77;;;13.90;75.30;;;;;;4977502;28;20945;-85
2023/04/30 11:02:47;;;;;;;1.63;1.40;;;13.90;75.70;;;;;;4966758;28;20847;-86
2023/04/30 11:05:19;;;;;;;5.50;2.60;;;14.00;77.40;;;;;;4970821;28;20439;-85
2023/04/30 11:07:50;;;;;;;2.63;1.60;;;14.00;74.10;;;;;;4978981;28;20435;-85
2023/04/30 11:10:16;;;;;;;1.47;1.47;;;14.10;74.50;;;;;;4979302;28;20424;-85
2023/04/30 11:12:47;;;;;;;2.70;1.73;;;14.10;73.00;;;;;;4969609;28;20457;-84
2023/04/30 11:15:16;;;;;;;1.20;1.10;;;14.10;74.50;;;;;;4969870;28;20413;-85
2023/04/30 11:17:49;;;;;;;2.17;2.00;;;14.10;74.40;;;;;;4969440;28;20474;-86
2023/04/30 11:20:21;;;;;;;1.63;1.57;;;14.30;74.20;;;;;;4974610;28;20418;-85
2023/04/30 11:22:47;;;;;;;2.43;2.27;;;14.40;73.70;;;;;;4985035;28;20453;-85
2023/04/30 11:25:18;;;;;;;2.20;1.40;;;14.50;73.60;;;;;;4978017;28;20530;-84
2023/04/30 11:27:44;;;;;;;1.30;1.20;;;14.50;75.30;;;;;;4978183;28;20422;-85
2023/04/30 11:30:13;;;;;;;6.87;2.87;;;14.70;75.90;;;;;;4991876;28;20455;-84
2023/04/30 11:32:40;;;;;;;2.37;1.80;;;14.80;77.10;;;;;;4994389;28;20449;-85
2023/04/30 11:35:06;;;;;;;1.70;1.60;;;14.80;74.70;;;;;;4994496;28;20424;-83
2023/04/30 11:37:36;;;;;;;1.20;1.10;;;14.70;74.90;;;;;;4978337;28;20993;-85
2023/04/30 11:40:07;;;;;;;1.33;1.23;;;14.70;76.00;;;;;;4992604;28;20440;-83
2023/04/30 11:42:33;;;;;;;2.43;2.10;;;14.60;76.10;;;;;;4992328;28;20469;-84
2023/04/30 11:45:06;;;;;;;1.20;1.10;;;14.80;77.90;;;;;;4977597;28;20493;-84
2023/04/30 11:47:49;;;;;;;2.70;1.83;;;15.00;75.40;;;;;;4988874;28;20861;-85
2023/04/30 11:50:31;;;;;;;2.20;1.37;;;15.00;76.20;;;;;;4978303;28;20479;-84
2023/04/30 11:53:02;;;;;;;13.73;2.70;;;15.10;75.30;;;;;;4979690;28;20452;-84
2023/04/30 11:55:28;;;;;;;2.17;1.30;;;15.20;76.20;;;;;;4988392;28;21018;-84
2023/04/30 11:57:57;;;;;;;1.97;1.20;;;15.20;76.20;;;;;;4978110;28;21128;-84
2023/04/30 12:00:30;;;;;;;3.07;1.93;;;15.40;76.40;;;;;;4985368;28;20965;-83
2023/04/30 12:02:58;;;;;;;1.67;1.37;;;15.50;76.50;;;;;;4996114;28;20467;-83
2023/04/30 12:05:25;;;;;;;1.27;1.23;;;15.60;74.20;;;;;;4977876;28;20472;-84
2023/04/30 12:08:06;;;;;;;1.30;1.20;;;15.50;75.20;;;;;;4978231;28;20421;-85
2023/04/30 12:10:32;;;;;;;2.60;2.30;;;15.50;73.60;;;;;;4977586;28;20428;-84
2023/04/30 12:12:58;;;;;;;6.10;2.03;;;15.40;76.90;;;;;;4977720;28;20503;-82
2023/04/30 12:15:25;;;;;;;1.40;1.30;;;15.50;77.00;;;;;;4991963;28;20185;-84
2023/04/30 12:17:52;;;;;;;1.27;1.17;;;15.50;76.50;;;;;;4977585;28;20205;-84
2023/04/30 12:20:20;;;;;;;1.80;1.60;;;15.50;76.00;;;;;;4977803;28;20936;-84
2023/04/30 12:22:46;;;;;;;5.00;2.00;;;15.80;77.20;;;;;;4971019;28;20501;-85
2023/04/30 12:25:16;;;;;;;2.60;1.77;;;16.00;75.40;;;;;;4965638;28;20440;-80
2023/04/30 12:27:45;;;;;;;2.80;1.90;;;16.10;75.80;;;;;;4990117;28;20933;-80
2023/04/30 12:30:12;;;;;;;1.43;1.33;;;16.40;77.70;;;;;;4979724;28;20413;-84
2023/04/30 12:32:42;;;;;;;2.20;1.70;;;16.50;75.70;;;;;;4979398;28;20860;-81
2023/04/30 12:35:12;;;;;;;1.43;1.33;;;16.50;75.90;;;;;;4986326;28;20417;-82
2023/04/30 12:37:42;;;;;;;1.10;0.97;;;16.50;76.60;;;;;;4973166;28;20468;-80
2023/04/30 12:40:08;;;;;;;2.30;2.10;;;16.60;76.10;;;;;;4979916;28;20409;-81
2023/04/30 12:42:34;;;;;;;1.47;1.27;;;16.60;76.00;;;;;;4974994;28;20547;-79
2023/04/30 12:45:00;;;;;;;5.30;2.37;;;16.60;76.60;;;;;;4975457;28;20190;-80
2023/04/30 12:47:26;;;;;;;9.93;3.90;;;16.80;77.90;;;;;;4974798;28;20468;-80
2023/04/30 12:49:52;;;;;;;4.23;2.57;;;17.00;77.90;;;;;;4973836;28;20396;-79
2023/04/30 12:52:25;;;;;;;2.00;1.60;;;17.20;77.50;;;;;;4972036;28;20988;-82
2023/04/30 12:54:51;;;;;;;8.90;5.63;;;17.50;76.90;;;;;;4989723;28;20181;-79
2023/04/30 12:57:16;;;;;;;2.53;2.37;;;17.60;75.30;;;;;;4975178;28;20856;-79
2023/04/30 12:59:51;;;;;;;1.50;1.40;;;17.70;74.50;;;;;;4969706;28;20187;-83
2023/04/30 13:02:16;;;;;;;2.80;2.30;;;17.70;73.00;;;;;;4968527;28;20201;-82
2023/04/30 13:04:42;;;;;;;2.20;2.00;;;17.70;74.30;;;;;;4987480;28;20439;-84
2023/04/30 13:07:09;;;;;;;1.83;1.47;;;17.80;73.10;;;;;;4988877;28;20189;-80
2023/04/30 13:09:37;;;;;;;2.33;2.13;;;18.10;74.60;;;;;;4976648;28;20413;-82
2023/04/30 13:12:06;;;;;;;6.00;1.80;;;18.40;71.70;;;;;;4975887;28;20457;-78
2023/04/30 13:14:32;;;;;;;1.30;1.20;;;18.30;70.60;;;;;;4967515;28;20849;-83
2023/04/30 13:16:58;;;;;;;2.13;1.97;;;18.00;69.00;;;;;;4968816;28;20461;-87
2023/04/30 13:19:23;;;;;;;6.13;1.97;;;17.90;71.30;;;;;;4988350;28;20793;-82